createdAt,value
2022-11-05T00:00:38.338Z,97212.00
2022-11-05T00:03:28.967Z,97215.61
2022-11-05T00:06:27.257Z,97215.09
2022-11-05T00:09:12.531Z,97219.51
2022-11-05T00:11:59.887Z,97218.89
2022-11-05T00:14:49.403Z,97213.10
2022-11-05T00:17:21.560Z,97206.84
2022-11-05T00:19:48.453Z,97204.24
2022-11-05T00:22:33.450Z,97208.28
2022-11-05T00:25:18.591Z,97215.05
2022-11-05T00:27:52.787Z,97219.67
2022-11-05T00:30:23.268Z,97217.54
2022-11-05T00:32:51.549Z,97217.30
2022-11-05T00:35:21.854Z,97218.81
2022-11-05T00:37:50.288Z,97218.95
2022-11-05T00:40:17.459Z,97220.09
2022-11-05T00:43:03.125Z,97221.24
2022-11-05T00:45:30.488Z,97215.82
2022-11-05T00:48:15.756Z,97212.62
2022-11-05T00:50:42.710Z,97219.47
2022-11-05T00:53:09.963Z,97222.28
2022-11-05T00:55:39.983Z,97222.97
2022-11-05T00:58:11.341Z,97224.72
2022-11-05T01:00:40.785Z,97216.80
2022-11-05T01:03:11.109Z,97213.30
2022-11-05T01:05:40.676Z,97207.96
2022-11-05T01:08:09.186Z,97208.19
2022-11-05T01:10:46.970Z,97210.25
2022-11-05T01:13:18.753Z,97211.55
2022-11-05T01:15:46.617Z,97211.47
2022-11-05T01:18:13.686Z,97212.54
2022-11-05T01:20:40.679Z,97216.20
2022-11-05T01:23:13.154Z,97210.63
2022-11-05T01:25:42.538Z,97204.55
2022-11-05T01:28:10.014Z,97195.70
2022-11-05T01:30:37.515Z,97190.77
2022-11-05T01:33:04.359Z,97190.61
2022-11-05T01:35:31.203Z,97191.15
2022-11-05T01:37:57.868Z,97188.27
2022-11-05T01:40:25.345Z,97186.59
2022-11-05T01:42:52.204Z,97184.61
2022-11-05T01:45:26.935Z,97188.27
2022-11-05T01:48:06.913Z,97193.77
2022-11-05T01:50:44.134Z,97195.61
2022-11-05T01:53:18.210Z,97184.10
2022-11-05T01:56:05.545Z,97177.63
2022-11-05T01:58:58.607Z,97176.65
2022-11-05T02:01:25.474Z,97187.11
2022-11-05T02:03:57.340Z,97190.00
2022-11-05T02:06:27.437Z,97190.30
2022-11-05T02:09:01.366Z,97195.65
2022-11-05T02:11:28.338Z,97198.33
2022-11-05T02:13:55.375Z,97198.95
2022-11-05T02:16:43.041Z,97193.08
2022-11-05T02:19:28.635Z,97194.06
2022-11-05T02:22:42.730Z,97184.77
2022-11-05T02:25:31.454Z,97178.67
2022-11-05T02:28:36.471Z,97178.21
2022-11-05T02:31:20.800Z,97189.50
2022-11-05T02:34:02.780Z,97196.05
2022-11-05T02:36:43.318Z,97193.77
2022-11-05T02:39:15.758Z,97196.52
2022-11-05T02:41:45.592Z,97193.09
2022-11-05T02:44:34.183Z,97194.77
2022-11-05T02:47:18.292Z,97196.82
2022-11-05T02:50:10.307Z,97195.91
2022-11-05T02:52:44.464Z,97194.54
2022-11-05T02:55:17.317Z,97191.89
2022-11-05T02:57:50.738Z,97181.75
2022-11-05T03:00:51.817Z,97174.57
2022-11-05T03:03:27.397Z,97175.34
2022-11-05T03:06:16.382Z,97183.95
2022-11-05T03:09:15.500Z,97179.16
2022-11-05T03:11:53.615Z,97177.17
2022-11-05T03:14:28.206Z,97175.65
2022-11-05T03:17:04.020Z,97186.46
2022-11-05T03:19:50.953Z,97188.98
2022-11-05T03:22:28.118Z,97180.21
2022-11-05T03:25:00.825Z,97181.20
2022-11-05T03:27:34.091Z,97182.02
2022-11-05T03:30:06.120Z,97181.20
2022-11-05T03:32:38.364Z,97176.45
2022-11-05T03:35:29.367Z,97182.25
2022-11-05T03:38:01.523Z,97189.03
2022-11-05T03:40:33.674Z,97194.89
2022-11-05T03:43:03.352Z,97196.48
2022-11-05T03:45:53.243Z,97198.92
2022-11-05T03:48:27.012Z,97206.39
2022-11-05T03:51:18.772Z,97209.30
2022-11-05T03:53:51.345Z,97211.43
2022-11-05T03:56:21.098Z,97213.25
2022-11-05T03:58:48.775Z,97210.89
2022-11-05T04:01:15.970Z,97205.79
2022-11-05T04:03:44.170Z,97208.83
2022-11-05T04:06:29.783Z,97202.57
2022-11-05T04:09:15.240Z,97195.95
2022-11-05T04:12:00.611Z,97192.98
2022-11-05T04:14:27.588Z,97197.09
2022-11-05T04:17:06.664Z,97199.68
2022-11-05T04:19:56.203Z,97200.83
2022-11-05T04:22:43.090Z,97202.35
2022-11-05T04:25:10.477Z,97204.64
2022-11-05T04:27:37.384Z,97201.66
2022-11-05T04:30:20.123Z,97205.69
2022-11-05T04:33:08.355Z,97208.66
2022-11-05T04:35:39.640Z,97206.21
2022-11-05T04:38:10.878Z,97208.19
2022-11-05T04:40:38.128Z,97213.23
2022-11-05T04:43:08.239Z,97212.08
2022-11-05T04:45:37.699Z,97213.70
2022-11-05T04:48:04.787Z,97215.67
2022-11-05T04:50:31.873Z,97212.93
2022-11-05T04:52:58.751Z,97207.30
2022-11-05T04:55:26.444Z,97207.38
2022-11-05T04:57:54.610Z,97213.24
2022-11-05T05:00:23.323Z,97215.98
2022-11-05T05:02:50.269Z,97216.45
2022-11-05T05:05:18.681Z,97218.38
2022-11-05T05:07:45.491Z,97223.03
2022-11-05T05:10:12.814Z,97225.63
2022-11-05T05:12:39.689Z,97219.54
2022-11-05T05:15:06.836Z,97213.45
2022-11-05T05:17:33.702Z,97209.71
2022-11-05T05:20:19.199Z,97203.77
2022-11-05T05:22:57.465Z,97200.65
2022-11-05T05:25:24.384Z,97204.84
2022-11-05T05:27:51.305Z,97207.89
2022-11-05T05:30:18.475Z,97202.02
2022-11-05T05:32:45.119Z,97201.04
2022-11-05T05:35:12.149Z,97195.98
2022-11-05T05:37:39.026Z,97194.84
2022-11-05T05:40:06.515Z,97199.27
2022-11-05T05:42:36.336Z,97205.29
2022-11-05T05:45:06.155Z,97220.39
2022-11-05T05:47:32.846Z,97213.06
2022-11-05T05:49:59.659Z,97200.41
2022-11-05T05:52:26.424Z,97197.75
2022-11-05T05:54:53.158Z,97203.48
2022-11-05T05:57:19.911Z,97218.11
2022-11-05T05:59:46.614Z,97225.52
2022-11-05T06:02:13.551Z,97222.47
2022-11-05T06:04:40.424Z,97219.14
2022-11-05T06:07:07.232Z,97218.76
2022-11-05T06:09:34.025Z,97221.58
2022-11-05T06:12:01.067Z,97231.38
2022-11-05T06:14:27.867Z,97242.36
2022-11-05T06:16:54.577Z,97248.73
2022-11-05T06:19:21.341Z,97251.27
2022-11-05T06:21:48.125Z,97254.63
2022-11-05T06:24:15.067Z,97266.23
2022-11-05T06:26:42.756Z,97271.90
2022-11-05T06:29:12.705Z,97285.66
2022-11-05T06:31:39.658Z,97292.38
2022-11-05T06:34:06.635Z,97293.92
2022-11-05T06:36:33.480Z,97289.52
2022-11-05T06:39:07.837Z,97287.04
2022-11-05T06:41:45.630Z,97283.69
2022-11-05T06:44:21.888Z,97284.85
2022-11-05T06:46:48.843Z,97289.77
2022-11-05T06:49:15.628Z,97290.99
2022-11-05T06:51:42.685Z,97292.84
2022-11-05T06:54:09.475Z,97291.57
2022-11-05T06:56:36.218Z,97289.60
2022-11-05T06:59:03.259Z,97288.55
2022-11-05T07:01:33.622Z,97290.55
2022-11-05T07:04:01.215Z,97284.73
2022-11-05T07:06:30.109Z,97285.04
2022-11-05T07:09:00.175Z,97286.95
2022-11-05T07:11:29.381Z,97291.77
2022-11-05T07:14:01.991Z,97291.63
2022-11-05T07:16:32.651Z,97290.77
2022-11-05T07:18:59.806Z,97291.61
2022-11-05T07:21:27.678Z,97295.88
2022-11-05T07:23:57.723Z,97296.27
2022-11-05T07:29:50.711Z,97296.63
2022-11-05T07:32:17.708Z,97296.17
2022-11-05T07:34:44.488Z,97295.77
2022-11-05T07:37:11.302Z,97295.83
2022-11-05T07:39:37.934Z,97298.35
2022-11-05T07:42:04.752Z,97291.05
2022-11-05T07:44:33.341Z,97288.81
2022-11-05T07:47:00.071Z,97288.80
2022-11-05T07:49:26.724Z,97288.52
2022-11-05T07:51:53.460Z,97291.33
2022-11-05T07:54:20.325Z,97293.13
2022-11-05T07:56:47.387Z,97292.77
2022-11-05T07:59:14.283Z,97291.38
2022-11-05T08:01:41.247Z,97288.65
2022-11-05T08:04:07.989Z,97289.69
2022-11-05T08:06:34.870Z,97288.97
2022-11-05T08:09:01.658Z,97294.08
2022-11-05T08:11:28.429Z,97297.73
2022-11-05T08:13:55.160Z,97299.79
2022-11-05T08:16:21.926Z,97298.83
2022-11-05T08:18:48.951Z,97296.56
2022-11-05T08:21:15.789Z,97298.13
2022-11-05T08:23:43.162Z,97294.95
2022-11-05T08:26:10.415Z,97297.83
2022-11-05T08:28:37.166Z,97301.01
2022-11-05T08:31:04.109Z,97302.10
2022-11-05T08:33:30.958Z,97303.13
2022-11-05T08:36:02.184Z,97300.38
2022-11-05T08:38:29.244Z,97298.29
2022-11-05T08:40:57.565Z,97303.02
2022-11-05T08:43:24.844Z,97301.20
2022-11-05T08:45:51.794Z,97298.15
2022-11-05T08:48:18.873Z,97295.04
2022-11-05T08:50:47.659Z,97293.75
2022-11-05T08:53:15.460Z,97296.84
2022-11-05T08:55:43.360Z,97298.92
2022-11-05T08:58:14.416Z,97301.73
2022-11-05T09:00:41.411Z,97300.06
2022-11-05T09:03:09.161Z,97306.02
2022-11-05T09:05:38.635Z,97300.83
2022-11-05T09:08:06.853Z,97303.80
2022-11-05T09:10:34.038Z,97305.61
2022-11-05T09:13:00.951Z,97306.38
2022-11-05T09:15:28.271Z,97298.92
2022-11-05T09:17:55.162Z,97293.64
2022-11-05T09:20:22.560Z,97292.41
2022-11-05T09:22:50.076Z,97298.16
2022-11-05T09:25:16.945Z,97299.09
2022-11-05T09:27:43.796Z,97299.27
2022-11-05T09:30:12.530Z,97299.40
2022-11-05T09:32:40.052Z,97295.66
2022-11-05T09:35:08.015Z,97299.15
2022-11-05T09:37:36.843Z,97297.17
2022-11-05T09:40:04.632Z,97294.98
2022-11-05T09:42:40.775Z,97289.10
2022-11-05T09:45:19.868Z,97287.52
2022-11-05T09:47:56.283Z,97285.99
2022-11-05T09:50:33.301Z,97286.63
2022-11-05T09:53:01.250Z,97289.67
2022-11-05T09:55:41.539Z,97289.98
2022-11-05T09:58:24.433Z,97289.63
2022-11-05T10:00:54.469Z,97289.36
2022-11-05T10:03:23.559Z,97290.36
2022-11-05T10:05:53.977Z,97289.45
2022-11-05T10:08:28.854Z,97290.09
2022-11-05T10:11:20.350Z,97290.31
2022-11-05T10:13:58.119Z,97292.73
2022-11-05T10:16:36.313Z,97299.86
2022-11-05T10:19:13.060Z,97303.15
2022-11-05T10:24:33.241Z,97303.60
2022-11-05T10:27:03.561Z,97304.23
2022-11-05T10:29:38.374Z,97294.62
2022-11-05T10:32:31.381Z,97295.66
2022-11-05T10:35:26.504Z,97296.64
2022-11-05T10:37:53.509Z,97295.56
2022-11-05T10:40:58.684Z,97297.27
2022-11-05T10:48:21.978Z,97297.02
2022-11-05T10:50:54.592Z,97298.80
2022-11-05T10:53:27.305Z,97303.00
2022-11-05T10:55:54.658Z,97296.83
2022-11-05T10:58:30.856Z,97294.23
2022-11-05T11:00:57.752Z,97296.73
2022-11-05T11:04:17.033Z,97292.69
2022-11-05T11:06:49.282Z,97288.44
2022-11-05T11:09:36.631Z,97291.01
2022-11-05T11:12:27.027Z,97291.71
2022-11-05T11:15:14.353Z,97292.62
2022-11-05T11:17:41.637Z,97292.50
2022-11-05T11:20:20.209Z,97289.84
2022-11-05T11:23:09.547Z,97287.02
2022-11-05T11:25:47.129Z,97287.95
2022-11-05T11:28:20.348Z,97289.64
2022-11-05T11:30:51.220Z,97290.36
2022-11-05T11:33:26.372Z,97290.23
2022-11-05T11:35:54.152Z,97290.80
2022-11-05T11:38:22.687Z,97286.36
2022-11-05T11:40:50.882Z,97288.98
2022-11-05T11:43:30.075Z,97288.53
2022-11-05T11:46:03.728Z,97284.66
2022-11-05T11:48:35.847Z,97280.67
2022-11-05T11:51:29.874Z,97279.73
2022-11-05T11:54:01.098Z,97276.27
2022-11-05T11:56:29.915Z,97275.14
2022-11-05T11:59:02.397Z,97272.86
2022-11-05T12:02:12.005Z,97274.61
2022-11-05T12:04:59.460Z,97279.09
2022-11-05T12:07:32.117Z,97283.11
2022-11-05T12:10:32.531Z,97283.77
2022-11-05T12:13:22.546Z,97280.77
2022-11-05T12:15:56.609Z,97281.10
2022-11-05T12:18:25.494Z,97286.73
2022-11-05T12:21:50.925Z,97285.84
2022-11-05T12:24:22.120Z,97285.16
2022-11-05T12:27:12.215Z,97281.59
2022-11-05T12:29:53.273Z,97285.54
2022-11-05T12:33:21.901Z,97284.45
2022-11-05T12:35:58.084Z,97287.88
2022-11-05T12:38:32.047Z,97288.67
2022-11-05T12:41:05.130Z,97289.83
2022-11-05T12:43:38.180Z,97286.83
2022-11-05T12:46:16.767Z,97288.29
2022-11-05T12:49:04.057Z,97294.22
2022-11-05T12:51:45.023Z,97298.95
2022-11-05T12:54:14.937Z,97302.92
2022-11-05T12:56:48.482Z,97300.79
2022-11-05T12:59:18.271Z,97293.95
2022-11-05T13:01:55.932Z,97294.44
2022-11-05T13:04:43.045Z,97295.05
2022-11-05T13:07:13.393Z,97301.44
2022-11-05T13:09:55.285Z,97300.94
2022-11-05T13:12:26.908Z,97304.73
2022-11-05T13:15:02.282Z,97304.04
2022-11-05T13:17:37.600Z,97307.98
2022-11-05T13:20:21.655Z,97309.34
2022-11-05T13:22:55.108Z,97307.91
2022-11-05T13:25:27.449Z,97303.82
2022-11-05T13:27:54.240Z,97306.20
2022-11-05T13:30:24.887Z,97302.98
2022-11-05T13:33:01.594Z,97302.16
2022-11-05T13:36:10.480Z,97302.66
2022-11-05T13:38:58.909Z,97304.05
2022-11-05T13:41:40.774Z,97306.55
2022-11-05T13:44:10.410Z,97311.77
2022-11-05T13:47:15.165Z,97315.61
2022-11-05T13:50:17.407Z,97320.30
2022-11-05T13:52:44.309Z,97324.55
2022-11-05T13:55:26.563Z,97327.48
2022-11-05T13:58:02.397Z,97328.39
2022-11-05T14:00:34.703Z,97336.27
2022-11-05T14:03:05.216Z,97336.22
2022-11-05T14:05:36.678Z,97338.23
2022-11-05T14:08:20.705Z,97335.71
2022-11-05T14:11:28.855Z,97332.78
2022-11-05T14:14:01.503Z,97335.57
2022-11-05T14:16:47.285Z,97336.98
2022-11-05T14:19:20.272Z,97333.20
2022-11-05T14:21:48.252Z,97332.92
2022-11-05T14:24:21.284Z,97333.48
2022-11-05T14:27:14.465Z,97334.65
2022-11-05T14:29:51.135Z,97335.70
2022-11-05T14:32:25.386Z,97337.69
2022-11-05T14:34:55.567Z,97337.73
2022-11-05T14:37:27.033Z,97340.66
2022-11-05T14:39:55.322Z,97344.80
2022-11-05T14:42:40.297Z,97339.67
2022-11-05T14:45:13.382Z,97335.25
2022-11-05T14:47:49.563Z,97335.48
2022-11-05T14:50:26.558Z,97332.30
2022-11-05T14:53:07.257Z,97332.54
2022-11-05T14:55:38.905Z,97332.59
2022-11-05T14:58:26.523Z,97331.56
2022-11-05T15:00:54.626Z,97336.20
2022-11-05T15:03:31.142Z,97340.19
2022-11-05T15:06:12.950Z,97336.58
2022-11-05T15:08:48.712Z,97337.63
2022-11-05T15:11:59.650Z,97336.15
2022-11-05T15:14:41.924Z,97335.36
2022-11-05T15:17:29.244Z,97333.92
2022-11-05T15:20:39.776Z,97335.80
2022-11-05T15:23:29.412Z,97343.30
2022-11-05T15:26:38.485Z,97346.55
2022-11-05T15:29:28.426Z,97343.52
2022-11-05T15:31:57.170Z,97343.63
2022-11-05T15:34:31.804Z,97343.02
2022-11-05T15:37:18.998Z,97346.65
2022-11-05T15:39:48.440Z,97350.05
2022-11-05T15:42:16.730Z,97349.13
2022-11-05T15:44:46.887Z,97350.36
2022-11-05T15:47:22.215Z,97353.94
2022-11-05T15:49:53.588Z,97352.86
2022-11-05T15:52:23.516Z,97352.63
2022-11-05T15:55:18.198Z,97360.86
2022-11-05T15:57:51.582Z,97360.02
2022-11-05T16:00:22.295Z,97361.42
2022-11-05T16:03:03.968Z,97363.42
2022-11-05T16:05:34.175Z,97361.18
2022-11-05T16:08:03.720Z,97367.31
2022-11-05T16:10:34.524Z,97368.21
2022-11-05T16:13:21.512Z,97373.69
2022-11-05T16:15:57.063Z,97375.00
2022-11-05T16:18:29.861Z,97375.69
2022-11-05T16:21:18.328Z,97376.28
2022-11-05T16:24:01.605Z,97379.27
2022-11-05T16:29:29.415Z,97380.79
2022-11-05T16:31:59.481Z,97383.65
2022-11-05T16:34:40.660Z,97386.65
2022-11-05T16:37:11.802Z,97382.91
2022-11-05T16:39:38.593Z,97388.76
2022-11-05T16:42:24.091Z,97390.98
2022-11-05T16:44:52.617Z,97392.73
2022-11-05T16:47:20.439Z,97396.85
2022-11-05T16:50:02.052Z,97401.20
2022-11-05T16:52:29.242Z,97401.39
2022-11-05T16:54:56.182Z,97402.57
2022-11-05T16:57:31.500Z,97404.62
2022-11-05T16:59:59.948Z,97407.13
2022-11-05T17:02:27.083Z,97403.63
2022-11-05T17:04:54.345Z,97405.35
2022-11-05T17:07:21.185Z,97403.00
2022-11-05T17:09:48.125Z,97402.02
2022-11-05T17:12:15.474Z,97401.14
2022-11-05T17:14:42.469Z,97403.18
2022-11-05T17:17:09.940Z,97404.52
2022-11-05T17:19:41.577Z,97405.60
2022-11-05T17:22:08.415Z,97404.64
2022-11-05T17:24:35.370Z,97406.88
2022-11-05T17:27:02.302Z,97403.67
2022-11-05T17:29:29.275Z,97405.20
2022-11-05T17:31:56.183Z,97407.60
2022-11-05T17:34:22.967Z,97404.86
2022-11-05T17:36:49.763Z,97404.98
2022-11-05T17:39:16.715Z,97409.42
2022-11-05T17:41:43.890Z,97413.73
2022-11-05T17:44:11.436Z,97418.13
2022-11-05T17:46:38.308Z,97423.05
2022-11-05T17:49:05.172Z,97424.11
2022-11-05T17:51:33.703Z,97431.95
2022-11-05T17:54:00.597Z,97432.79
2022-11-05T17:56:33.868Z,97435.94
2022-11-05T17:59:02.866Z,97434.56
2022-11-05T18:01:33.279Z,97436.11
2022-11-05T18:04:05.424Z,97437.44
2022-11-05T18:06:37.352Z,97432.98
2022-11-05T18:09:07.027Z,97433.77
2022-11-05T18:11:35.375Z,97434.86
2022-11-05T18:14:03.341Z,97434.56
2022-11-05T18:16:30.562Z,97435.52
2022-11-05T18:18:57.947Z,97437.98
2022-11-05T18:21:24.767Z,97446.42
2022-11-05T18:23:52.043Z,97452.73
2022-11-05T18:26:19.016Z,97455.42
2022-11-05T18:28:45.960Z,97455.69
2022-11-05T18:31:18.095Z,97452.09
2022-11-05T18:33:46.391Z,97454.40
2022-11-05T18:36:18.511Z,97456.80
2022-11-05T18:38:45.918Z,97463.50
2022-11-05T18:41:12.932Z,97463.81
2022-11-05T18:43:40.039Z,97462.52
2022-11-05T18:46:07.363Z,97459.79
2022-11-05T18:48:35.352Z,97458.27
2022-11-05T18:51:10.066Z,97453.22
2022-11-05T18:53:38.125Z,97452.70
2022-11-05T18:56:22.905Z,97457.09
2022-11-05T18:59:08.395Z,97457.95
2022-11-05T19:01:38.892Z,97461.95
2022-11-05T19:04:06.014Z,97459.58
2022-11-05T19:06:34.798Z,97459.20
2022-11-05T19:09:02.215Z,97463.42
2022-11-05T19:11:28.983Z,97466.96
2022-11-05T19:13:55.767Z,97469.18
2022-11-05T19:16:25.517Z,97472.40
2022-11-05T19:18:52.508Z,97475.23
2022-11-05T19:21:27.174Z,97477.39
2022-11-05T19:23:57.331Z,97479.23
2022-11-05T19:26:28.571Z,97480.06
2022-11-05T19:29:03.304Z,97480.46
2022-11-05T19:31:34.119Z,97484.38
2022-11-05T19:34:02.578Z,97480.79
2022-11-05T19:36:29.632Z,97482.47
2022-11-05T19:38:59.301Z,97484.40
2022-11-05T19:41:28.035Z,97485.25
2022-11-05T19:43:57.427Z,97488.23
2022-11-05T19:46:25.266Z,97494.84
2022-11-05T19:48:52.515Z,97501.51
2022-11-05T19:51:25.699Z,97508.87
2022-11-05T19:53:54.656Z,97511.55
2022-11-05T19:56:37.799Z,97506.50
2022-11-05T19:59:08.547Z,97516.91
2022-11-05T20:01:36.067Z,97518.84
2022-11-05T20:04:04.224Z,97523.05
2022-11-05T20:06:37.417Z,97526.50
2022-11-05T20:09:22.613Z,97533.69
2022-11-05T20:11:53.744Z,97538.67
2022-11-05T20:14:20.654Z,97541.66
2022-11-05T20:16:47.965Z,97543.88
2022-11-05T20:19:18.050Z,97544.42
2022-11-05T20:21:45.663Z,97545.05
2022-11-05T20:24:18.816Z,97548.11
2022-11-05T20:26:58.694Z,97545.04
2022-11-05T20:29:30.532Z,97544.05
2022-11-05T20:32:03.379Z,97547.44
2022-11-05T20:34:32.325Z,97544.38
2022-11-05T20:36:59.885Z,97546.29
2022-11-05T20:39:27.059Z,97547.36
2022-11-05T20:41:55.848Z,97544.07
2022-11-05T20:44:22.896Z,97554.17
2022-11-05T20:46:49.763Z,97556.17
2022-11-05T20:49:20.072Z,97561.30
2022-11-05T20:51:49.398Z,97556.33
2022-11-05T20:54:16.202Z,97556.33
2022-11-05T20:56:43.071Z,97560.00
2022-11-05T20:59:10.550Z,97557.33
2022-11-05T21:01:37.668Z,97557.55
2022-11-05T21:04:05.091Z,97555.48
2022-11-05T21:06:33.113Z,97554.55
2022-11-05T21:09:00.450Z,97555.63
2022-11-05T21:11:27.651Z,97549.05
2022-11-05T21:13:54.851Z,97545.61
2022-11-05T21:16:22.499Z,97548.43
2022-11-05T21:18:49.619Z,97555.94
2022-11-05T21:21:20.428Z,97559.52
2022-11-05T21:23:47.677Z,97555.31
2022-11-05T21:26:16.228Z,97555.14
2022-11-05T21:28:43.529Z,97555.00
2022-11-05T21:31:10.744Z,97556.98
2022-11-05T21:33:39.164Z,97553.37
2022-11-05T21:36:12.673Z,97555.35
2022-11-05T21:38:41.404Z,97559.86
2022-11-05T21:41:17.406Z,97561.69
2022-11-05T21:43:44.570Z,97564.67
2022-11-05T21:46:13.153Z,97564.96
2022-11-05T21:48:40.244Z,97569.45
2022-11-05T21:51:27.981Z,97566.84
2022-11-05T21:54:14.727Z,97564.22
2022-11-05T21:57:05.882Z,97567.20
2022-11-05T21:59:47.289Z,97570.92
2022-11-05T22:02:17.487Z,97576.02
2022-11-05T22:04:47.531Z,97577.61
2022-11-05T22:07:21.817Z,97579.43
2022-11-05T22:09:59.593Z,97576.29
2022-11-05T22:12:27.530Z,97579.18
2022-11-05T22:14:54.786Z,97580.69
2022-11-05T22:17:24.152Z,97581.05
2022-11-05T22:19:55.554Z,97581.48
2022-11-05T22:22:22.701Z,97581.77
2022-11-05T22:24:49.882Z,97585.09
2022-11-05T22:27:20.926Z,97583.76
2022-11-05T22:29:49.361Z,97582.41
2022-11-05T22:32:16.858Z,97581.27
2022-11-05T22:34:43.826Z,97580.01
2022-11-05T22:37:13.162Z,97581.80
2022-11-05T22:39:39.996Z,97578.77
2022-11-05T22:42:08.761Z,97580.40
2022-11-05T22:44:39.008Z,97584.55
2022-11-05T22:47:06.354Z,97588.68
2022-11-05T22:49:33.854Z,97590.23
2022-11-05T22:52:02.389Z,97585.75
2022-11-05T22:54:29.271Z,97585.54
2022-11-05T22:56:56.276Z,97588.46
2022-11-05T22:59:23.351Z,97591.60
2022-11-05T23:01:50.302Z,97589.89
2022-11-05T23:04:17.564Z,97588.38
2022-11-05T23:07:03.151Z,97592.21
2022-11-05T23:09:57.694Z,97594.29
2022-11-05T23:12:29.766Z,97592.92
2022-11-05T23:14:59.710Z,97592.28
2022-11-05T23:17:46.245Z,97598.27
2022-11-05T23:20:38.653Z,97599.74
2022-11-05T23:23:31.007Z,97600.23
2022-11-05T23:25:59.527Z,97600.65
2022-11-05T23:28:26.564Z,97602.44
2022-11-05T23:31:14.667Z,97599.64
2022-11-05T23:33:41.549Z,97599.04
2022-11-05T23:36:30.857Z,97599.75
2022-11-05T23:38:57.744Z,97598.78
2022-11-05T23:42:01.620Z,97599.80
2022-11-05T23:44:49.908Z,97603.86
2022-11-05T23:47:39.414Z,97605.55
2022-11-05T23:50:06.615Z,97610.60
2022-11-05T23:52:33.945Z,97614.82
2022-11-05T23:55:04.247Z,97612.80
2022-11-05T23:57:31.255Z,97612.67
2022-11-05T23:59:58.293Z,97619.41
